createdAt,value
2018-10-21T00:01:08.586Z,94914.80
2018-10-21T00:03:36.126Z,94914.73
2018-10-21T00:06:03.831Z,94907.47
2018-10-21T00:08:31.397Z,94902.64
2018-10-21T00:10:58.942Z,94894.56
2018-10-21T00:13:26.504Z,94888.72
2018-10-21T00:15:54.088Z,94876.12
2018-10-21T00:18:21.686Z,94874.34
2018-10-21T00:20:49.257Z,94867.75
2018-10-21T00:23:16.799Z,94870.63
2018-10-21T00:25:44.488Z,94860.77
2018-10-21T00:28:12.019Z,94863.96
2018-10-21T00:30:39.592Z,94860.39
2018-10-21T00:33:07.182Z,94867.72
2018-10-21T00:35:34.697Z,94869.48
2018-10-21T00:38:02.290Z,94878.03
2018-10-21T00:40:29.813Z,94882.33
2018-10-21T00:42:57.437Z,94892.33
2018-10-21T00:45:24.971Z,94886.00
2018-10-21T00:47:52.526Z,94885.26
2018-10-21T00:50:20.078Z,94892.65
2018-10-21T00:52:47.602Z,94893.80
2018-10-21T00:55:15.167Z,94889.84
2018-10-21T00:57:42.723Z,94897.96
2018-10-21T01:00:12.020Z,94891.58
2018-10-21T01:02:39.647Z,94892.75
2018-10-21T01:05:08.137Z,94878.20
2018-10-21T01:07:35.750Z,94873.66
2018-10-21T01:10:03.619Z,94878.56
2018-10-21T01:12:31.178Z,94876.80
2018-10-21T01:14:58.774Z,94893.16
2018-10-21T01:17:26.354Z,94907.66
2018-10-21T01:19:53.888Z,94907.45
2018-10-21T01:22:21.703Z,94905.23
2018-10-21T01:24:49.710Z,94905.48
2018-10-21T01:27:17.333Z,94900.64
2018-10-21T01:29:46.625Z,94893.56
2018-10-21T01:32:15.679Z,94890.14
2018-10-21T01:34:43.224Z,94887.64
2018-10-21T01:37:10.876Z,94872.25
2018-10-21T01:39:44.234Z,94865.22
2018-10-21T01:42:11.748Z,94856.53
2018-10-21T01:44:39.284Z,94854.23
2018-10-21T01:47:06.903Z,94847.38
2018-10-21T01:49:34.433Z,94843.12
2018-10-21T01:52:01.943Z,94836.00
2018-10-21T01:54:29.497Z,94831.45
2018-10-21T01:56:57.040Z,94837.95
2018-10-21T01:59:24.579Z,94834.34
2018-10-21T02:01:52.118Z,94832.36
2018-10-21T02:04:19.786Z,94832.30
2018-10-21T02:06:47.361Z,94833.91
2018-10-21T02:09:14.958Z,94841.98
2018-10-21T02:11:42.506Z,94843.55
2018-10-21T02:14:10.077Z,94848.14
2018-10-21T02:16:37.894Z,94846.42
2018-10-21T02:19:05.442Z,94848.37
2018-10-21T02:21:32.997Z,94847.16
2018-10-21T02:24:00.570Z,94842.95
2018-10-21T02:26:28.233Z,94838.20
2018-10-21T02:28:55.634Z,94836.55
2018-10-21T02:31:23.156Z,94830.73
2018-10-21T02:33:50.715Z,94830.78
2018-10-21T02:36:18.615Z,94824.63
2018-10-21T02:38:46.139Z,94815.54
2018-10-21T02:41:20.632Z,94820.55
2018-10-21T02:43:48.176Z,94822.49
2018-10-21T02:46:15.700Z,94819.34
2018-10-21T02:48:43.232Z,94814.43
2018-10-21T02:51:11.805Z,94822.23
2018-10-21T02:53:39.359Z,94820.02
2018-10-21T02:56:07.750Z,94817.03
2018-10-21T02:58:35.652Z,94817.03
2018-10-21T03:01:03.206Z,94817.29
2018-10-21T03:03:30.784Z,94816.11
2018-10-21T03:05:58.339Z,94815.09
2018-10-21T03:08:26.046Z,94814.64
2018-10-21T03:10:53.639Z,94809.64
2018-10-21T03:13:21.216Z,94814.34
2018-10-21T03:15:48.759Z,94812.63
2018-10-21T03:18:16.440Z,94817.84
2018-10-21T03:20:43.976Z,94817.03
2018-10-21T03:23:11.539Z,94817.69
2018-10-21T03:25:39.131Z,94816.73
2018-10-21T03:28:06.645Z,94820.50
2018-10-21T03:30:34.235Z,94819.33
2018-10-21T03:33:01.827Z,94813.59
2018-10-21T03:35:29.308Z,94813.19
2018-10-21T03:37:57.634Z,94808.18
2018-10-21T03:40:25.363Z,94799.14
2018-10-21T03:42:53.215Z,94803.45
2018-10-21T03:45:20.758Z,94803.30
2018-10-21T03:47:48.345Z,94806.25
2018-10-21T03:50:15.935Z,94807.27
2018-10-21T03:52:43.444Z,94808.84
2018-10-21T03:55:11.029Z,94813.00
2018-10-21T03:57:38.563Z,94821.14
2018-10-21T04:00:06.667Z,94823.39
2018-10-21T04:02:34.217Z,94828.88
2018-10-21T04:05:02.067Z,94822.55
2018-10-21T04:07:29.619Z,94824.14
2018-10-21T04:09:57.218Z,94826.98
2018-10-21T04:12:24.779Z,94826.22
2018-10-21T04:14:52.291Z,94828.28
2018-10-21T04:17:20.097Z,94830.46
2018-10-21T04:19:47.634Z,94825.55
2018-10-21T04:22:15.275Z,94830.04
2018-10-21T04:24:42.751Z,94833.34
2018-10-21T04:27:10.274Z,94837.73
2018-10-21T04:29:37.788Z,94841.57
2018-10-21T04:32:05.365Z,94837.34
2018-10-21T04:34:32.919Z,94830.70
2018-10-21T04:37:06.175Z,94829.11
2018-10-21T04:39:39.470Z,94829.64
2018-10-21T04:42:07.363Z,94823.47
2018-10-21T04:44:34.929Z,94829.44
2018-10-21T04:47:02.550Z,94839.16
2018-10-21T04:49:30.248Z,94829.52
2018-10-21T04:51:57.807Z,94825.27
2018-10-21T04:54:26.242Z,94824.86
2018-10-21T04:56:53.790Z,94828.14
2018-10-21T04:59:21.342Z,94818.52
2018-10-21T05:01:48.863Z,94813.92
2018-10-21T05:04:16.425Z,94825.19
2018-10-21T05:06:43.943Z,94822.88
2018-10-21T05:09:11.482Z,94822.97
2018-10-21T05:11:39.309Z,94816.77
2018-10-21T05:14:06.855Z,94804.04
2018-10-21T05:16:34.413Z,94803.86
2018-10-21T05:19:01.998Z,94801.91
2018-10-21T05:21:29.579Z,94803.73
2018-10-21T05:23:57.243Z,94811.88
2018-10-21T05:26:24.667Z,94816.13
2018-10-21T05:28:52.236Z,94810.93
2018-10-21T05:31:19.775Z,94814.90
2018-10-21T05:33:47.382Z,94818.91
2018-10-21T05:36:14.918Z,94816.38
2018-10-21T05:38:42.464Z,94813.19
2018-10-21T05:41:10.065Z,94810.03
2018-10-21T05:43:37.594Z,94810.73
2018-10-21T05:46:05.295Z,94813.73
2018-10-21T05:48:32.995Z,94811.67
2018-10-21T05:51:00.530Z,94815.09
2018-10-21T05:53:28.038Z,94812.63
2018-10-21T05:55:55.577Z,94812.33
2018-10-21T05:58:23.180Z,94813.75
2018-10-21T06:00:50.640Z,94806.78
2018-10-21T06:03:18.153Z,94805.01
2018-10-21T06:05:47.122Z,94799.46
2018-10-21T06:08:14.707Z,94801.70
2018-10-21T06:10:42.859Z,94799.46
2018-10-21T06:13:11.715Z,94800.86
2018-10-21T06:15:39.432Z,94790.12
2018-10-21T06:18:10.410Z,94790.19
2018-10-21T06:20:41.367Z,94799.00
2018-10-21T06:23:08.894Z,94799.98
2018-10-21T06:25:37.603Z,94807.08
2018-10-21T06:28:05.374Z,94804.89
2018-10-21T06:30:32.967Z,94802.30
2018-10-21T06:33:00.537Z,94805.73
2018-10-21T06:35:28.103Z,94809.39
2018-10-21T06:37:55.654Z,94816.06
2018-10-21T06:40:23.233Z,94815.70
2018-10-21T06:42:50.830Z,94816.22
2018-10-21T06:45:18.505Z,94818.61
2018-10-21T06:47:45.936Z,94820.00
2018-10-21T06:50:14.731Z,94819.05
2018-10-21T06:52:42.283Z,94817.13
2018-10-21T06:55:09.857Z,94819.59
2018-10-21T06:57:37.437Z,94819.25
2018-10-21T07:00:05.103Z,94823.59
2018-10-21T07:02:32.678Z,94827.97
2018-10-21T07:05:00.305Z,94829.83
2018-10-21T07:07:27.782Z,94831.59
2018-10-21T07:09:55.378Z,94828.81
2018-10-21T07:12:22.902Z,94830.16
2018-10-21T07:14:50.501Z,94833.56
2018-10-21T07:17:18.155Z,94837.16
2018-10-21T07:19:45.706Z,94844.66
2018-10-21T07:22:13.314Z,94844.93
2018-10-21T07:24:40.860Z,94841.47
2018-10-21T07:27:08.392Z,94842.51
2018-10-21T07:29:35.942Z,94842.38
2018-10-21T07:32:03.482Z,94843.97
2018-10-21T07:34:31.062Z,94846.88
2018-10-21T07:36:58.614Z,94844.92
2018-10-21T07:39:26.170Z,94843.77
2018-10-21T07:41:53.738Z,94846.26
2018-10-21T07:44:21.319Z,94834.92
2018-10-21T07:46:48.861Z,94836.56
2018-10-21T07:49:16.463Z,94835.39
2018-10-21T07:51:43.967Z,94833.44
2018-10-21T07:54:11.548Z,94826.28
2018-10-21T07:56:39.143Z,94824.77
2018-10-21T07:59:06.676Z,94823.34
2018-10-21T08:01:34.253Z,94823.16
2018-10-21T08:04:01.863Z,94819.64
2018-10-21T08:06:36.234Z,94824.55
2018-10-21T08:09:05.852Z,94821.45
2018-10-21T08:11:33.394Z,94824.80
2018-10-21T08:14:00.967Z,94820.73
2018-10-21T08:16:28.548Z,94827.53
2018-10-21T08:18:56.090Z,94823.44
2018-10-21T08:21:24.456Z,94810.84
2018-10-21T08:23:52.027Z,94810.08
2018-10-21T08:26:19.566Z,94819.20
2018-10-21T08:28:47.602Z,94826.78
2018-10-21T08:31:15.151Z,94824.84
2018-10-21T08:33:42.661Z,94829.39
2018-10-21T08:36:10.382Z,94823.95
2018-10-21T08:38:38.882Z,94824.88
2018-10-21T08:41:06.442Z,94826.25
2018-10-21T08:43:33.998Z,94822.62
2018-10-21T08:46:01.545Z,94828.30
2018-10-21T08:48:29.024Z,94812.78
2018-10-21T08:50:56.605Z,94812.24
2018-10-21T08:53:24.123Z,94816.94
2018-10-21T08:55:51.805Z,94818.03
2018-10-21T08:58:19.238Z,94813.81
2018-10-21T09:00:46.778Z,94805.91
2018-10-21T09:03:14.406Z,94802.87
2018-10-21T09:05:41.947Z,94810.05
2018-10-21T09:08:09.487Z,94807.62
2018-10-21T09:10:37.091Z,94807.58
2018-10-21T09:13:04.604Z,94803.72
2018-10-21T09:15:32.223Z,94805.88
2018-10-21T09:17:59.710Z,94794.38
2018-10-21T09:20:27.572Z,94783.80
2018-10-21T09:22:55.177Z,94785.69
2018-10-21T09:25:22.707Z,94785.31
2018-10-21T09:27:50.182Z,94783.71
2018-10-21T09:30:17.787Z,94782.33
2018-10-21T09:32:45.359Z,94768.59
2018-10-21T09:35:15.256Z,94771.99
2018-10-21T09:37:43.206Z,94773.78
2018-10-21T09:40:12.448Z,94768.80
2018-10-21T09:42:39.970Z,94782.55
2018-10-21T09:45:08.200Z,94774.36
2018-10-21T09:47:35.787Z,94773.77
2018-10-21T09:50:03.583Z,94770.78
2018-10-21T09:52:31.066Z,94774.77
2018-10-21T09:54:58.631Z,94782.61
2018-10-21T09:57:26.152Z,94775.49
2018-10-21T09:59:53.664Z,94774.50
2018-10-21T10:02:26.934Z,94769.73
2018-10-21T10:04:54.459Z,94766.80
2018-10-21T10:07:22.371Z,94763.66
2018-10-21T10:09:49.928Z,94769.48
2018-10-21T10:12:17.462Z,94766.95
2018-10-21T10:14:44.981Z,94758.63
2018-10-21T10:17:12.560Z,94754.72
2018-10-21T10:19:40.107Z,94751.50
2018-10-21T10:22:07.719Z,94741.83
2018-10-21T10:24:35.213Z,94745.09
2018-10-21T10:27:02.848Z,94747.29
2018-10-21T10:29:30.363Z,94745.67
2018-10-21T10:31:57.878Z,94738.36
2018-10-21T10:34:25.412Z,94737.52
2018-10-21T10:36:52.982Z,94729.58
2018-10-21T10:39:20.554Z,94735.98
2018-10-21T10:41:48.237Z,94728.15
2018-10-21T10:44:15.752Z,94731.33
2018-10-21T10:46:43.287Z,94735.57
2018-10-21T10:49:10.922Z,94732.88
2018-10-21T10:51:38.421Z,94726.78
2018-10-21T10:54:06.175Z,94726.57
2018-10-21T10:56:33.732Z,94728.08
2018-10-21T10:59:01.902Z,94727.85
2018-10-21T11:01:29.431Z,94727.74
2018-10-21T11:03:57.486Z,94719.44
2018-10-21T11:06:25.134Z,94719.31
2018-10-21T11:11:27.206Z,94710.33
2018-10-21T11:13:54.808Z,94710.29
2018-10-21T11:16:22.315Z,94702.40
2018-10-21T11:18:49.918Z,94705.18
2018-10-21T11:21:17.479Z,94707.83
2018-10-21T11:23:45.270Z,94701.88
2018-10-21T11:26:12.892Z,94705.97
2018-10-21T11:28:40.547Z,94704.90
2018-10-21T11:31:08.202Z,94699.20
2018-10-21T11:33:35.739Z,94701.98
2018-10-21T11:36:03.303Z,94695.48
2018-10-21T11:38:30.895Z,94695.78
2018-10-21T11:40:58.450Z,94693.84
2018-10-21T11:43:26.022Z,94704.84
2018-10-21T11:45:53.601Z,94707.98
2018-10-21T11:48:21.172Z,94709.32
2018-10-21T11:50:48.791Z,94702.61
2018-10-21T11:53:16.399Z,94705.02
2018-10-21T11:55:43.964Z,94711.95
2018-10-21T11:58:12.918Z,94710.09
2018-10-21T12:00:40.992Z,94708.72
2018-10-21T12:03:09.876Z,94706.67
2018-10-21T12:05:37.464Z,94696.73
2018-10-21T12:08:05.027Z,94703.14
2018-10-21T12:10:32.624Z,94706.09
2018-10-21T12:13:00.237Z,94696.20
2018-10-21T12:15:27.839Z,94699.30
2018-10-21T12:17:55.383Z,94694.33
2018-10-21T12:20:23.704Z,94685.03
2018-10-21T12:22:52.106Z,94683.08
2018-10-21T12:25:20.467Z,94692.14
2018-10-21T12:27:48.590Z,94682.59
2018-10-21T12:30:16.748Z,94680.01
2018-10-21T12:32:44.976Z,94676.39
2018-10-21T12:35:13.268Z,94673.19
2018-10-21T12:37:41.664Z,94668.48
2018-10-21T12:40:10.339Z,94672.77
2018-10-21T12:42:39.133Z,94674.36
2018-10-21T12:45:09.763Z,94665.70
2018-10-21T12:47:38.332Z,94667.91
2018-10-21T12:50:07.246Z,94673.14
2018-10-21T12:52:35.592Z,94667.69
2018-10-21T12:55:04.626Z,94674.13
2018-10-21T12:57:32.919Z,94672.21
2018-10-21T13:00:01.199Z,94663.75
2018-10-21T13:02:29.429Z,94658.54
2018-10-21T13:04:57.692Z,94661.46
2018-10-21T13:07:25.926Z,94663.84
2018-10-21T13:09:54.168Z,94660.08
2018-10-21T13:12:22.519Z,94653.54
2018-10-21T13:14:50.739Z,94659.67
2018-10-21T13:17:18.970Z,94657.81
2018-10-21T13:19:47.280Z,94661.05
2018-10-21T13:22:15.695Z,94669.81
2018-10-21T13:24:43.858Z,94658.91
2018-10-21T13:27:12.163Z,94659.00
2018-10-21T13:29:40.458Z,94653.09
2018-10-21T13:32:08.786Z,94658.15
2018-10-21T13:34:37.029Z,94647.68
2018-10-21T13:37:05.357Z,94642.16
2018-10-21T13:39:33.612Z,94648.53
2018-10-21T13:42:01.886Z,94644.27
2018-10-21T13:44:30.105Z,94637.72
2018-10-21T13:46:58.374Z,94633.89
2018-10-21T13:49:26.595Z,94645.19
2018-10-21T13:51:54.916Z,94631.62
2018-10-21T13:54:23.073Z,94628.27
2018-10-21T13:56:51.312Z,94635.48
2018-10-21T13:59:19.717Z,94638.20
2018-10-21T14:01:47.969Z,94639.98
2018-10-21T14:04:16.365Z,94636.13
2018-10-21T14:06:44.624Z,94636.81
2018-10-21T14:09:13.601Z,94633.17
2018-10-21T14:11:41.878Z,94628.80
2018-10-21T14:14:11.062Z,94624.94
2018-10-21T14:16:39.648Z,94621.22
2018-10-21T14:19:08.364Z,94617.72
2018-10-21T14:21:36.625Z,94620.59
2018-10-21T14:24:05.172Z,94621.06
2018-10-21T14:26:33.489Z,94622.92
2018-10-21T14:29:01.786Z,94620.22
2018-10-21T14:31:30.100Z,94616.23
2018-10-21T14:33:58.313Z,94616.86
2018-10-21T14:36:26.516Z,94614.63
2018-10-21T14:38:54.781Z,94614.16
2018-10-21T14:41:23.113Z,94616.34
2018-10-21T14:43:51.433Z,94610.59
2018-10-21T14:46:19.643Z,94609.49
2018-10-21T14:48:48.765Z,94610.03
2018-10-21T14:51:17.086Z,94614.94
2018-10-21T14:53:45.346Z,94607.67
2018-10-21T14:56:13.808Z,94608.80
2018-10-21T14:58:41.928Z,94610.98
2018-10-21T15:01:10.210Z,94607.34
2018-10-21T15:03:38.522Z,94600.03
2018-10-21T15:06:06.752Z,94608.08
2018-10-21T15:08:34.931Z,94602.53
2018-10-21T15:11:03.240Z,94599.20
2018-10-21T15:13:31.466Z,94597.12
2018-10-21T15:15:59.727Z,94593.16
2018-10-21T15:18:27.965Z,94598.66
2018-10-21T15:20:56.213Z,94603.08
2018-10-21T15:23:26.483Z,94599.34
2018-10-21T15:25:57.535Z,94595.94
2018-10-21T15:28:25.790Z,94597.80
2018-10-21T15:30:54.090Z,94594.48
2018-10-21T15:33:22.336Z,94593.07
2018-10-21T15:35:50.865Z,94591.21
2018-10-21T15:38:19.160Z,94599.58
2018-10-21T15:40:47.353Z,94605.08
2018-10-21T15:43:15.677Z,94596.40
2018-10-21T15:45:44.017Z,94596.63
2018-10-21T15:48:12.342Z,94595.44
2018-10-21T15:50:40.644Z,94595.70
2018-10-21T15:53:08.847Z,94595.70
2018-10-21T15:55:37.157Z,94599.25
2018-10-21T15:58:05.521Z,94597.56
2018-10-21T16:00:33.784Z,94597.45
2018-10-21T16:03:02.099Z,94602.62
2018-10-21T16:05:30.332Z,94604.14
2018-10-21T16:07:58.660Z,94605.45
2018-10-21T16:10:26.870Z,94606.09
2018-10-21T16:12:55.148Z,94602.64
2018-10-21T16:15:23.449Z,94607.52
2018-10-21T16:17:51.730Z,94607.88
2018-10-21T16:20:20.156Z,94607.37
2018-10-21T16:22:48.282Z,94603.97
2018-10-21T16:25:16.581Z,94615.84
2018-10-21T16:27:44.846Z,94612.70
2018-10-21T16:30:14.347Z,94611.53
2018-10-21T16:32:43.314Z,94611.39
2018-10-21T16:35:12.019Z,94610.80
2018-10-21T16:37:40.649Z,94612.20
2018-10-21T16:40:11.749Z,94615.80
2018-10-21T16:42:40.125Z,94611.93
2018-10-21T16:45:09.396Z,94610.31
2018-10-21T16:47:38.324Z,94614.34
2018-10-21T16:50:13.224Z,94612.25
2018-10-21T16:52:42.701Z,94623.20
2018-10-21T16:55:11.654Z,94632.30
2018-10-21T16:57:40.037Z,94628.63
2018-10-21T17:00:13.060Z,94631.42
2018-10-21T17:02:41.629Z,94632.41
2018-10-21T17:05:10.237Z,94635.75
2018-10-21T17:07:38.567Z,94637.36
2018-10-21T17:10:08.512Z,94644.43
2018-10-21T17:12:36.612Z,94646.77
2018-10-21T17:15:05.963Z,94647.17
2018-10-21T17:17:34.433Z,94651.13
2018-10-21T17:20:02.818Z,94648.38
2018-10-21T17:22:31.136Z,94649.44
2018-10-21T17:24:59.588Z,94650.14
2018-10-21T17:27:27.791Z,94648.53
2018-10-21T17:29:56.037Z,94650.41
2018-10-21T17:32:24.343Z,94647.34
2018-10-21T17:34:52.593Z,94646.44
2018-10-21T17:37:20.912Z,94645.91
2018-10-21T17:39:49.213Z,94648.28
2018-10-21T17:42:17.706Z,94650.55
2018-10-21T17:44:45.948Z,94651.78
2018-10-21T17:47:14.242Z,94654.52
2018-10-21T17:49:42.523Z,94649.89
2018-10-21T17:52:10.963Z,94650.71
2018-10-21T17:54:39.133Z,94642.89
2018-10-21T17:57:07.480Z,94649.64
2018-10-21T17:59:36.054Z,94654.01
2018-10-21T18:02:04.614Z,94651.77
2018-10-21T18:04:32.877Z,94650.36
2018-10-21T18:07:01.298Z,94652.20
2018-10-21T18:09:29.566Z,94658.45
2018-10-21T18:11:57.884Z,94654.88
2018-10-21T18:14:26.189Z,94654.95
2018-10-21T18:16:54.462Z,94652.01
2018-10-21T18:19:22.881Z,94650.03
2018-10-21T18:21:51.176Z,94639.86
2018-10-21T18:24:19.650Z,94649.67
2018-10-21T18:26:47.940Z,94653.02
2018-10-21T18:29:16.287Z,94646.99
2018-10-21T18:31:44.651Z,94655.36
2018-10-21T18:34:12.985Z,94644.38
2018-10-21T18:36:41.244Z,94647.17
2018-10-21T18:39:10.323Z,94651.13
2018-10-21T18:41:38.618Z,94651.28
2018-10-21T18:44:07.558Z,94654.41
2018-10-21T18:46:35.924Z,94654.41
2018-10-21T18:49:04.337Z,94653.75
2018-10-21T18:51:32.610Z,94657.00
2018-10-21T18:54:00.864Z,94660.25
2018-10-21T18:56:29.179Z,94660.28
2018-10-21T18:58:57.583Z,94657.67
2018-10-21T19:01:25.875Z,94657.31
2018-10-21T19:03:54.200Z,94660.87
2018-10-21T19:06:22.452Z,94657.17
2018-10-21T19:08:50.711Z,94654.89
2018-10-21T19:11:18.982Z,94657.80
2018-10-21T19:13:47.330Z,94651.98
2018-10-21T19:16:15.641Z,94647.69
2018-10-21T19:18:44.158Z,94648.45
2018-10-21T19:21:12.451Z,94652.86
2018-10-21T19:23:40.696Z,94654.17
2018-10-21T19:26:08.955Z,94654.47
2018-10-21T19:28:37.239Z,94655.34
2018-10-21T19:31:06.242Z,94650.61
2018-10-21T19:33:34.524Z,94646.82
2018-10-21T19:36:02.810Z,94645.59
2018-10-21T19:38:31.067Z,94644.76
2018-10-21T19:40:59.369Z,94652.41
2018-10-21T19:43:27.670Z,94652.00
2018-10-21T19:45:55.920Z,94646.50
2018-10-21T19:48:24.207Z,94645.80
2018-10-21T19:50:52.418Z,94648.05
2018-10-21T19:53:20.657Z,94642.42
2018-10-21T19:55:48.946Z,94651.70
2018-10-21T19:58:17.298Z,94655.71
2018-10-21T20:00:45.517Z,94655.41
2018-10-21T20:03:13.840Z,94663.54
2018-10-21T20:05:42.106Z,94665.45
2018-10-21T20:08:10.430Z,94669.12
2018-10-21T20:10:38.694Z,94659.88
2018-10-21T20:13:06.998Z,94660.88
2018-10-21T20:15:35.205Z,94664.75
2018-10-21T20:18:03.786Z,94662.09
2018-10-21T20:20:32.025Z,94660.30
2018-10-21T20:23:00.321Z,94661.30
2018-10-21T20:25:28.612Z,94664.09
2018-10-21T20:27:56.898Z,94665.59
2018-10-21T20:30:25.146Z,94668.14
2018-10-21T20:32:53.500Z,94680.80
2018-10-21T20:35:21.733Z,94673.42
2018-10-21T20:37:50.019Z,94671.58
2018-10-21T20:40:18.394Z,94670.47
2018-10-21T20:42:46.804Z,94675.45
2018-10-21T20:45:15.060Z,94671.75
2018-10-21T20:47:43.365Z,94680.16
2018-10-21T20:50:11.622Z,94671.18
2018-10-21T20:52:39.871Z,94683.52
2018-10-21T20:55:08.936Z,94679.55
2018-10-21T20:57:37.164Z,94675.61
2018-10-21T21:00:05.848Z,94677.25
2018-10-21T21:02:34.142Z,94673.55
2018-10-21T21:05:02.515Z,94671.87
2018-10-21T21:07:30.797Z,94669.81
2018-10-21T21:09:59.046Z,94665.48
2018-10-21T21:12:27.284Z,94668.88
2018-10-21T21:14:55.547Z,94676.39
2018-10-21T21:17:23.765Z,94677.05
2018-10-21T21:19:51.970Z,94678.41
2018-10-21T21:22:20.279Z,94676.80
2018-10-21T21:24:48.424Z,94675.92
2018-10-21T21:27:16.696Z,94672.64
2018-10-21T21:29:44.973Z,94673.44
2018-10-21T21:32:13.238Z,94673.55
2018-10-21T21:34:41.539Z,94675.22
2018-10-21T21:37:09.760Z,94677.06
2018-10-21T21:39:37.971Z,94679.36
2018-10-21T21:42:06.241Z,94680.17
2018-10-21T21:44:34.501Z,94676.14
2018-10-21T21:47:02.784Z,94666.66
2018-10-21T21:49:31.025Z,94668.00
2018-10-21T21:51:59.274Z,94668.58
2018-10-21T21:54:27.535Z,94666.34
2018-10-21T21:56:55.707Z,94662.41
2018-10-21T21:59:23.952Z,94659.70
2018-10-21T22:01:52.197Z,94660.16
2018-10-21T22:04:20.402Z,94661.84
2018-10-21T22:06:48.831Z,94665.09
2018-10-21T22:09:17.040Z,94659.84
2018-10-21T22:11:45.288Z,94657.13
2018-10-21T22:14:13.557Z,94654.44
2018-10-21T22:16:41.857Z,94651.61
2018-10-21T22:19:10.098Z,94650.73
2018-10-21T22:21:38.828Z,94650.36
2018-10-21T22:24:08.338Z,94657.20
2018-10-21T22:26:36.615Z,94651.27
2018-10-21T22:29:05.074Z,94651.14
2018-10-21T22:31:33.357Z,94646.67
2018-10-21T22:34:01.666Z,94650.81
2018-10-21T22:36:29.916Z,94648.73
2018-10-21T22:38:58.160Z,94649.99
2018-10-21T22:41:26.440Z,94644.66
2018-10-21T22:43:54.629Z,94647.44
2018-10-21T22:46:22.936Z,94646.09
2018-10-21T22:48:51.154Z,94647.05
2018-10-21T22:51:19.403Z,94638.33
2018-10-21T22:53:47.634Z,94636.81
2018-10-21T22:56:16.057Z,94638.16
2018-10-21T22:58:44.267Z,94640.41
2018-10-21T23:01:12.596Z,94633.08
2018-10-21T23:03:40.855Z,94635.42
2018-10-21T23:06:09.085Z,94629.40
2018-10-21T23:08:37.304Z,94632.39
2018-10-21T23:11:05.496Z,94639.38
2018-10-21T23:13:33.733Z,94633.59
2018-10-21T23:16:02.053Z,94634.09
2018-10-21T23:18:30.495Z,94632.47
2018-10-21T23:20:58.703Z,94629.97
2018-10-21T23:23:26.973Z,94632.86
2018-10-21T23:25:55.256Z,94634.48
2018-10-21T23:28:23.485Z,94631.73
2018-10-21T23:30:51.816Z,94624.67
2018-10-21T23:33:20.076Z,94623.46
2018-10-21T23:35:48.350Z,94626.50
2018-10-21T23:38:16.619Z,94631.39
2018-10-21T23:40:44.800Z,94623.12
2018-10-21T23:43:13.004Z,94624.89
2018-10-21T23:45:41.223Z,94631.16
2018-10-21T23:48:09.466Z,94625.91
2018-10-21T23:50:37.660Z,94634.19
2018-10-21T23:53:06.349Z,94626.91
2018-10-21T23:55:34.523Z,94626.39
2018-10-21T23:58:02.790Z,94629.27
